This is the latest recevied weather packets stored in our database for station/object IT9FBN-3. If no packets are shown the sender has not sent any weather packets the latest 10 day(s).
| Time | Temp. | Humidity | Pressure | Rain* | Wind** | Luminosity | Snow |
|---|---|---|---|---|---|---|---|
| 1778089203 | 20° C | 53% | 1012.2 hPa | 0 mm | - | - | - |
| 1778088903 | 20° C | 58% | 1012.3 hPa | 0 mm | - | - | - |
| 1778088603 | 20.56° C | 58% | 1012.6 hPa | 0 mm | - | - | - |
| 1778088303 | 21.11° C | 52% | 1012.8 hPa | 0 mm | - | - | - |
| 1778088003 | 21.11° C | 45% | 1012.7 hPa | 0 mm | - | - | - |
| 1778087703 | 21.11° C | 43% | 1012.7 hPa | 0 mm | - | - | - |
| 1778087403 | 20.56° C | 57% | 1012.6 hPa | 0 mm | - | - | - |
| 1778087102 | 20.56° C | 58% | 1012.7 hPa | 0 mm | - | - | - |
| 1778086803 | 20.56° C | 57% | 1012.8 hPa | 0 mm | - | - | - |
| 1778086503 | 21.11° C | 54% | 1012.8 hPa | 0 mm | - | - | - |
| 1778086202 | 21.67° C | 46% | 1012.8 hPa | 0 mm | - | - | - |
| 1778085903 | 21.67° C | 41% | 1012.8 hPa | 0 mm | - | - | - |
| 1778085603 | 21.67° C | 43% | 1012.9 hPa | 0 mm | - | - | - |
| 1778085302 | 21.11° C | 47% | 1013.1 hPa | 0 mm | - | - | - |
| 1778085003 | 21.11° C | 52% | 1013 hPa | 0 mm | - | - | - |
| 1778084703 | 21.11° C | 52% | 1013.1 hPa | 0 mm | - | - | - |
| 1778084403 | 21.11° C | 52% | 1013 hPa | 0 mm | - | - | - |
| 1778084103 | 21.11° C | 51% | 1012.9 hPa | 0 mm | - | - | - |
| 1778083803 | 21.11° C | 50% | 1012.9 hPa | 0 mm | - | - | - |
| 1778083503 | 21.11° C | 53% | 1012.7 hPa | 0 mm | - | - | - |
| 1778083203 | 21.11° C | 53% | 1012.7 hPa | 0 mm | - | - | - |
| 1778082903 | 21.11° C | 52% | 1012.5 hPa | 0 mm | - | - | - |
| 1778082603 | 21.11° C | 51% | 1012.7 hPa | 0 mm | - | - | - |
| 1778082303 | 21.11° C | 52% | 1012.7 hPa | 0 mm | - | - | - |
| 1778082003 | 21.11° C | 52% | 1012.7 hPa | 0 mm | - | - | - |
* Rain latest hour (hover to see other rain measurements)
** Current wind speed in m/s (hover to see current wind gust speed)